createdAt,value
2019-04-04T00:02:08.717Z,49.57
2019-04-04T00:05:12.606Z,49.00
2019-04-04T00:08:16.457Z,54.77
2019-04-04T00:11:20.296Z,49.47
2019-04-04T00:14:24.091Z,53.67
2019-04-04T00:17:27.885Z,53.97
2019-04-04T00:20:32.316Z,54.27
2019-04-04T00:23:38.038Z,56.03
2019-04-04T00:26:42.628Z,52.23
2019-04-04T00:29:47.992Z,50.63
2019-04-04T00:32:52.786Z,49.50
2019-04-04T00:35:57.253Z,50.17
2019-04-04T00:39:01.084Z,56.20
2019-04-04T00:42:04.972Z,51.97
2019-04-04T00:45:08.929Z,58.93
2019-04-04T00:48:12.779Z,58.13
2019-04-04T00:51:16.602Z,52.53
2019-04-04T00:54:20.424Z,53.63
2019-04-04T00:57:24.252Z,51.00
2019-04-04T01:00:28.116Z,47.03
2019-04-04T01:03:31.927Z,48.57
2019-04-04T01:06:35.755Z,49.60
2019-04-04T01:09:39.607Z,45.73
2019-04-04T01:12:43.441Z,46.03
2019-04-04T01:15:47.323Z,53.97
2019-04-04T01:18:51.132Z,57.10
2019-04-04T01:21:54.944Z,59.33
2019-04-04T01:24:59.024Z,59.53
2019-04-04T01:28:04.390Z,61.23
2019-04-04T01:31:08.223Z,62.27
2019-04-04T01:34:12.033Z,65.73
2019-04-04T01:37:15.894Z,64.57
2019-04-04T01:40:19.880Z,68.87
2019-04-04T01:43:23.690Z,61.00
2019-04-04T01:46:27.488Z,57.27
2019-04-04T01:49:31.290Z,66.13
2019-04-04T01:52:35.109Z,66.13
2019-04-04T01:55:38.919Z,59.37
2019-04-04T01:58:42.712Z,65.93
2019-04-04T02:01:46.840Z,55.33
2019-04-04T02:04:51.301Z,63.53
2019-04-04T02:07:55.107Z,58.80
2019-04-04T02:10:58.909Z,59.83
2019-04-04T02:14:02.733Z,62.00
2019-04-04T02:17:06.606Z,68.63
2019-04-04T02:20:10.573Z,64.00
2019-04-04T02:23:14.385Z,67.13
2019-04-04T02:26:18.185Z,66.80
2019-04-04T02:29:22.025Z,67.97
2019-04-04T02:32:27.519Z,69.93
2019-04-04T02:35:31.487Z,61.87
2019-04-04T02:38:35.269Z,68.47
2019-04-04T02:41:39.082Z,63.80
2019-04-04T02:44:42.961Z,62.17
2019-04-04T02:47:50.313Z,66.53
2019-04-04T02:50:52.280Z,63.37
2019-04-04T02:53:56.085Z,67.37
2019-04-04T02:56:59.935Z,68.43
2019-04-04T03:00:04.413Z,72.40
2019-04-04T03:03:09.325Z,75.10
2019-04-04T03:06:13.465Z,68.10
2019-04-04T03:09:17.337Z,70.03
2019-04-04T03:12:21.326Z,73.70
2019-04-04T03:15:25.223Z,73.00
2019-04-04T03:18:29.096Z,71.10
2019-04-04T03:21:32.963Z,75.90
2019-04-04T03:24:40.282Z,86.90
2019-04-04T03:27:42.373Z,73.97
2019-04-04T03:30:52.426Z,76.50
2019-04-04T03:33:51.803Z,79.70
2019-04-04T03:36:55.678Z,74.00
2019-04-04T03:39:59.529Z,71.33
2019-04-04T03:43:03.317Z,63.33
2019-04-04T03:46:07.143Z,66.83
2019-04-04T03:49:10.915Z,64.60
2019-04-04T03:52:14.734Z,66.40
2019-04-04T03:55:18.588Z,60.57
2019-04-04T03:58:27.043Z,69.73
2019-04-04T04:01:27.988Z,59.93
2019-04-04T04:04:31.826Z,68.20
2019-04-04T04:07:35.626Z,64.30
2019-04-04T04:10:39.416Z,60.57
2019-04-04T04:13:43.220Z,67.47
2019-04-04T04:16:47.028Z,66.87
2019-04-04T04:19:50.833Z,63.03
2019-04-04T04:22:54.701Z,66.67
2019-04-04T04:25:58.568Z,57.10
2019-04-04T04:29:02.485Z,60.97
2019-04-04T04:32:06.386Z,65.20
2019-04-04T04:35:10.429Z,59.17
2019-04-04T04:38:14.211Z,58.87
2019-04-04T04:41:20.423Z,58.37
2019-04-04T04:44:23.581Z,57.17
2019-04-04T04:47:27.457Z,58.00
2019-04-04T04:50:31.243Z,60.53
2019-04-04T04:53:35.063Z,65.23
2019-04-04T04:56:38.869Z,65.07
2019-04-04T04:59:44.299Z,67.53
2019-04-04T05:02:48.529Z,74.90
2019-04-04T05:05:52.409Z,74.93
2019-04-04T05:08:56.226Z,62.93
2019-04-04T05:12:00.124Z,69.93
2019-04-04T05:15:04.269Z,71.77
2019-04-04T05:18:08.064Z,65.97
2019-04-04T05:21:24.134Z,71.23
2019-04-04T05:24:18.105Z,61.67
2019-04-04T05:27:22.617Z,64.33
2019-04-04T05:30:26.433Z,65.70
2019-04-04T05:33:31.667Z,68.73
2019-04-04T05:36:36.784Z,65.33
2019-04-04T05:39:40.927Z,60.97
2019-04-04T05:42:45.698Z,63.00
2019-04-04T05:45:49.474Z,59.23
2019-04-04T05:48:53.364Z,60.23
2019-04-04T05:51:57.165Z,62.43
2019-04-04T05:55:00.997Z,66.40
2019-04-04T05:58:04.883Z,65.10
2019-04-04T06:01:10.254Z,66.50
2019-04-04T06:04:14.355Z,64.87
2019-04-04T06:07:18.224Z,62.67
2019-04-04T06:10:22.005Z,54.70
2019-04-04T06:13:27.049Z,58.07
2019-04-04T06:16:33.050Z,64.00
2019-04-04T06:19:36.920Z,63.60
2019-04-04T06:22:40.708Z,61.63
2019-04-04T06:25:44.549Z,66.67
2019-04-04T06:28:48.437Z,62.40
2019-04-04T06:31:52.273Z,64.50
2019-04-04T06:34:56.779Z,63.23
2019-04-04T06:38:00.723Z,69.60
2019-04-04T06:41:04.653Z,60.67
2019-04-04T06:44:08.528Z,72.90
2019-04-04T06:47:12.344Z,66.73
2019-04-04T06:50:16.328Z,61.40
2019-04-04T06:53:20.389Z,59.13
2019-04-04T06:56:25.644Z,61.27
2019-04-04T06:59:29.530Z,58.53
2019-04-04T07:02:33.364Z,57.13
2019-04-04T07:05:38.831Z,58.40
2019-04-04T07:08:42.916Z,52.93
2019-04-04T07:11:46.811Z,56.13
2019-04-04T07:14:50.720Z,49.70
2019-04-04T07:17:54.545Z,58.63
2019-04-04T07:20:58.403Z,54.50
2019-04-04T07:24:02.237Z,52.83
2019-04-04T07:27:06.236Z,52.77
2019-04-04T07:30:10.491Z,53.27
2019-04-04T07:33:14.287Z,54.27
2019-04-04T07:36:20.180Z,47.97
2019-04-04T07:39:23.630Z,46.03
2019-04-04T07:42:27.531Z,39.83
2019-04-04T07:45:31.429Z,42.97
2019-04-04T07:48:35.382Z,41.93
2019-04-04T07:51:39.164Z,40.97
2019-04-04T07:54:42.962Z,38.03
2019-04-04T07:57:46.767Z,36.17
2019-04-04T08:00:50.559Z,32.47
2019-04-04T08:03:54.403Z,30.43
2019-04-04T08:06:58.213Z,26.97
2019-04-04T08:10:02.014Z,32.00
2019-04-04T08:13:05.946Z,25.93
2019-04-04T08:16:09.822Z,27.30
2019-04-04T08:19:13.594Z,27.63
2019-04-04T08:22:17.482Z,23.80
2019-04-04T08:25:21.378Z,23.73
2019-04-04T08:28:25.200Z,23.87
2019-04-04T08:31:29.020Z,24.73
2019-04-04T08:34:32.921Z,22.97
2019-04-04T08:37:36.735Z,21.40
2019-04-04T08:40:40.556Z,20.80
2019-04-04T08:43:44.341Z,21.50
2019-04-04T08:46:48.151Z,18.83
2019-04-04T08:49:51.953Z,18.97
2019-04-04T08:52:55.845Z,17.83
2019-04-04T08:55:59.713Z,22.30
2019-04-04T08:59:03.604Z,19.80
2019-04-04T09:02:07.538Z,21.40
2019-04-04T09:05:12.631Z,19.77
2019-04-04T09:08:16.620Z,20.27
2019-04-04T09:11:20.761Z,23.47
2019-04-04T09:14:24.735Z,21.60
2019-04-04T09:17:28.536Z,19.77
2019-04-04T09:20:32.383Z,23.40
2019-04-04T09:23:36.248Z,22.27
2019-04-04T09:26:40.127Z,18.87
2019-04-04T09:29:43.940Z,19.53
2019-04-04T09:32:47.752Z,19.57
2019-04-04T09:35:51.634Z,19.90
2019-04-04T09:38:55.436Z,19.57
2019-04-04T09:41:59.258Z,20.90
2019-04-04T09:45:03.156Z,20.17
2019-04-04T09:48:07.129Z,19.20
2019-04-04T09:51:11.009Z,19.93
2019-04-04T09:54:14.903Z,21.60
2019-04-04T09:57:18.711Z,20.83
2019-04-04T10:00:24.534Z,20.67
2019-04-04T10:03:28.425Z,21.47
2019-04-04T10:06:32.238Z,20.43
2019-04-04T10:09:36.063Z,22.50
2019-04-04T10:12:39.876Z,20.63
2019-04-04T10:15:44.125Z,21.87
2019-04-04T10:18:47.931Z,22.93
2019-04-04T10:21:51.753Z,21.30
2019-04-04T10:24:55.566Z,21.23
2019-04-04T10:27:59.364Z,21.00
2019-04-04T10:31:03.254Z,21.17
2019-04-04T10:34:07.224Z,24.53
2019-04-04T10:37:11.155Z,20.30
2019-04-04T10:40:15.688Z,23.83
2019-04-04T10:43:19.505Z,21.17
2019-04-04T10:46:23.377Z,23.00
2019-04-04T10:49:27.184Z,24.43
2019-04-04T10:52:30.995Z,23.63
2019-04-04T10:55:34.803Z,25.17
2019-04-04T10:58:38.690Z,22.47
2019-04-04T11:01:42.524Z,27.37
2019-04-04T11:04:46.355Z,26.60
2019-04-04T11:07:50.151Z,29.27
2019-04-04T11:10:53.976Z,30.47
2019-04-04T11:13:57.884Z,30.07
2019-04-04T11:17:01.695Z,29.83
2019-04-04T11:20:06.124Z,30.97
2019-04-04T11:23:09.995Z,30.83
2019-04-04T11:26:13.881Z,30.73
2019-04-04T11:29:17.761Z,29.90
2019-04-04T11:32:21.659Z,32.53
2019-04-04T11:35:25.481Z,35.57
2019-04-04T11:38:29.309Z,36.27
2019-04-04T11:41:33.129Z,32.37
2019-04-04T11:44:36.933Z,34.93
2019-04-04T11:47:40.728Z,32.90
2019-04-04T11:50:44.665Z,33.33
2019-04-04T11:53:48.478Z,34.60
2019-04-04T11:56:52.277Z,38.40
2019-04-04T11:59:56.167Z,35.00
2019-04-04T12:03:00.062Z,35.07
2019-04-04T12:06:04.001Z,36.90
2019-04-04T12:09:08.855Z,33.20
2019-04-04T12:12:12.672Z,39.47
2019-04-04T12:15:16.632Z,45.63
2019-04-04T12:18:20.501Z,46.67
2019-04-04T12:21:24.300Z,48.33
2019-04-04T12:24:28.084Z,45.57
2019-04-04T12:27:31.915Z,44.00
2019-04-04T12:30:35.876Z,53.87
2019-04-04T12:33:39.686Z,52.07
2019-04-04T12:36:43.502Z,56.70
2019-04-04T12:39:47.318Z,52.17
2019-04-04T12:42:51.220Z,53.03
2019-04-04T12:45:55.123Z,51.10
2019-04-04T12:48:58.928Z,50.50
2019-04-04T12:52:02.742Z,56.47
2019-04-04T12:55:07.604Z,52.83
2019-04-04T12:58:11.492Z,50.93
2019-04-04T13:01:15.309Z,49.83
2019-04-04T13:04:30.697Z,57.10
2019-04-04T13:07:24.838Z,56.13
2019-04-04T13:10:33.162Z,57.27
2019-04-04T13:13:34.311Z,53.63
2019-04-04T13:16:38.117Z,59.33
2019-04-04T13:19:42.042Z,52.13
2019-04-04T13:22:46.023Z,59.97
2019-04-04T13:25:49.831Z,54.00
2019-04-04T13:28:53.641Z,56.13
2019-04-04T13:31:57.478Z,53.97
2019-04-04T13:35:04.919Z,54.47
2019-04-04T13:38:06.915Z,45.63
2019-04-04T13:41:21.278Z,52.00
2019-04-04T13:44:16.269Z,46.63
2019-04-04T13:47:20.064Z,44.33
2019-04-04T13:50:23.869Z,45.93
2019-04-04T13:53:27.678Z,45.73
2019-04-04T13:56:31.501Z,46.40
2019-04-04T13:59:35.349Z,43.00
2019-04-04T14:02:39.215Z,42.20
2019-04-04T14:05:43.039Z,39.77
2019-04-04T14:08:46.853Z,41.87
2019-04-04T14:11:50.685Z,37.27
2019-04-04T14:14:54.475Z,36.40
2019-04-04T14:17:58.374Z,38.57
2019-04-04T14:21:04.300Z,33.63
2019-04-04T14:24:13.781Z,31.87
2019-04-04T14:27:13.560Z,34.17
2019-04-04T14:30:18.231Z,36.47
2019-04-04T14:33:22.077Z,34.23
2019-04-04T14:36:26.005Z,40.47
2019-04-04T14:39:29.844Z,32.83
2019-04-04T14:42:33.639Z,36.47
2019-04-04T14:45:37.465Z,37.00
2019-04-04T14:48:42.950Z,39.30
2019-04-04T14:51:46.891Z,40.40
2019-04-04T14:54:50.714Z,39.13
2019-04-04T14:57:54.694Z,35.80
2019-04-04T15:00:58.599Z,41.27
2019-04-04T15:04:02.418Z,37.97
2019-04-04T15:07:06.303Z,32.60
2019-04-04T15:10:10.314Z,33.87
2019-04-04T15:13:14.151Z,35.97
2019-04-04T15:16:18.727Z,38.17
2019-04-04T15:19:22.635Z,36.27
2019-04-04T15:22:26.484Z,32.10
2019-04-04T15:25:30.391Z,33.83
2019-04-04T15:28:34.267Z,35.20
2019-04-04T15:31:38.150Z,33.47
2019-04-04T15:34:41.954Z,36.07
2019-04-04T15:37:45.777Z,33.90
2019-04-04T15:40:49.567Z,36.40
2019-04-04T15:43:53.452Z,37.47
2019-04-04T15:46:57.300Z,30.30
2019-04-04T15:50:01.084Z,35.33
2019-04-04T15:53:04.995Z,38.20
2019-04-04T15:56:08.829Z,33.97
2019-04-04T15:59:12.650Z,33.87
2019-04-04T16:02:16.654Z,32.73
2019-04-04T16:05:20.480Z,34.43
2019-04-04T16:08:24.324Z,36.90
2019-04-04T16:11:28.619Z,33.40
2019-04-04T16:14:32.459Z,36.73
2019-04-04T16:17:36.281Z,36.83
2019-04-04T16:20:40.257Z,40.47
2019-04-04T16:23:44.075Z,43.30
2019-04-04T16:26:47.894Z,35.60
2019-04-04T16:29:51.718Z,36.30
2019-04-04T16:32:55.519Z,38.07
2019-04-04T16:35:59.316Z,37.57
2019-04-04T16:39:03.266Z,35.43
2019-04-04T16:42:07.085Z,35.17
2019-04-04T16:45:11.049Z,40.03
2019-04-04T16:48:14.921Z,46.10
2019-04-04T16:51:18.727Z,45.90
2019-04-04T16:54:22.533Z,44.63
2019-04-04T16:57:27.073Z,39.43
2019-04-04T17:00:31.064Z,43.17
2019-04-04T17:03:34.963Z,36.80
2019-04-04T17:06:38.784Z,41.77
2019-04-04T17:09:42.725Z,38.33
2019-04-04T17:12:46.624Z,37.17
2019-04-04T17:15:50.441Z,38.20
2019-04-04T17:18:54.250Z,36.40
2019-04-04T17:21:58.073Z,41.30
2019-04-04T17:25:01.898Z,36.40
2019-04-04T17:28:05.897Z,38.47
2019-04-04T17:31:10.288Z,38.63
2019-04-04T17:34:14.736Z,42.03
2019-04-04T17:37:18.918Z,34.03
2019-04-04T17:40:23.125Z,41.57
2019-04-04T17:43:27.528Z,43.83
2019-04-04T17:46:31.492Z,43.77
2019-04-04T17:49:35.372Z,39.93
2019-04-04T17:52:39.280Z,43.77
2019-04-04T17:55:43.073Z,38.63
2019-04-04T17:58:46.959Z,47.30
2019-04-04T18:01:50.769Z,43.00
2019-04-04T18:04:54.678Z,42.93
2019-04-04T18:07:58.603Z,44.37
2019-04-04T18:11:02.431Z,44.30
2019-04-04T18:14:06.539Z,42.03
2019-04-04T18:17:10.363Z,41.90
2019-04-04T18:20:14.965Z,38.57
2019-04-04T18:23:18.868Z,38.97
2019-04-04T18:26:22.751Z,44.03
2019-04-04T18:29:26.602Z,44.90
2019-04-04T18:32:30.421Z,46.47
2019-04-04T18:35:34.690Z,41.37
2019-04-04T18:38:38.959Z,44.10
2019-04-04T18:41:42.986Z,48.97
2019-04-04T18:44:46.800Z,42.63
2019-04-04T18:47:50.753Z,42.20
2019-04-04T18:50:54.639Z,44.27
2019-04-04T18:53:58.465Z,45.33
2019-04-04T18:57:02.375Z,46.37
2019-04-04T19:00:08.225Z,44.13
2019-04-04T19:03:12.122Z,53.50
2019-04-04T19:06:16.036Z,45.87
2019-04-04T19:09:19.931Z,46.07
2019-04-04T19:12:23.747Z,50.40
2019-04-04T19:15:27.677Z,44.47
2019-04-04T19:18:31.556Z,45.70
2019-04-04T19:21:35.456Z,43.77
2019-04-04T19:24:39.354Z,43.33
2019-04-04T19:27:43.196Z,48.83
2019-04-04T19:30:47.185Z,44.30
2019-04-04T19:33:51.079Z,43.13
2019-04-04T19:36:55.000Z,45.43
2019-04-04T19:39:58.839Z,49.40
2019-04-04T19:43:02.755Z,51.37
2019-04-04T19:46:06.723Z,48.03
2019-04-04T19:49:10.594Z,127.33
2019-04-04T19:52:14.557Z,94.17
2019-04-04T19:55:18.552Z,111.63
2019-04-04T19:58:22.364Z,97.97
2019-04-04T20:01:26.174Z,53.07
2019-04-04T20:04:30.007Z,44.57
2019-04-04T20:07:33.813Z,48.83
2019-04-04T20:10:37.638Z,45.00
2019-04-04T20:13:41.451Z,45.60
2019-04-04T20:16:45.286Z,49.87
2019-04-04T20:19:49.186Z,49.07
2019-04-04T20:22:53.053Z,46.77
2019-04-04T20:25:56.861Z,46.73
2019-04-04T20:29:00.699Z,48.67
2019-04-04T20:32:04.607Z,50.60
2019-04-04T20:35:08.682Z,50.77
2019-04-04T20:38:12.500Z,53.10
2019-04-04T20:41:16.743Z,53.53
2019-04-04T20:44:20.724Z,51.13
2019-04-04T20:47:24.528Z,53.97
2019-04-04T20:50:28.441Z,55.03
2019-04-04T20:53:32.334Z,50.73
2019-04-04T20:56:36.243Z,60.93
2019-04-04T20:59:40.104Z,52.50
2019-04-04T21:02:44.059Z,53.80
2019-04-04T21:05:48.537Z,56.30
2019-04-04T21:08:52.722Z,53.33
2019-04-04T21:11:57.112Z,56.33
2019-04-04T21:15:01.124Z,58.47
2019-04-04T21:18:05.148Z,54.80
2019-04-04T21:21:09.185Z,60.50
2019-04-04T21:24:13.066Z,57.07
2019-04-04T21:27:18.817Z,54.47
2019-04-04T21:30:22.655Z,55.13
2019-04-04T21:33:26.609Z,46.70
2019-04-04T21:36:30.381Z,55.53
2019-04-04T21:39:34.191Z,56.40
2019-04-04T21:42:38.049Z,53.80
2019-04-04T21:45:41.939Z,52.93
2019-04-04T21:48:45.775Z,54.03
2019-04-04T21:51:49.603Z,49.27
2019-04-04T21:54:53.419Z,54.37
2019-04-04T21:57:57.280Z,49.23
2019-04-04T22:01:01.517Z,54.17
2019-04-04T22:04:05.881Z,49.67
2019-04-04T22:07:10.165Z,50.17
2019-04-04T22:10:14.402Z,52.37
2019-04-04T22:13:18.432Z,45.67
2019-04-04T22:16:22.551Z,45.23
2019-04-04T22:19:26.744Z,48.27
2019-04-04T22:22:30.650Z,46.50
2019-04-04T22:25:34.946Z,45.23
2019-04-04T22:28:38.804Z,41.30
2019-04-04T22:31:42.701Z,45.30
2019-04-04T22:34:46.818Z,46.67
2019-04-04T22:37:51.064Z,51.30
2019-04-04T22:40:55.086Z,44.20
2019-04-04T22:44:03.725Z,43.73
2019-04-04T22:47:04.987Z,47.47
2019-04-04T22:50:09.444Z,47.60
2019-04-04T22:53:13.763Z,45.50
2019-04-04T22:56:17.593Z,46.53
2019-04-04T22:59:21.666Z,41.90
2019-04-04T23:02:25.647Z,47.03
2019-04-04T23:05:29.880Z,41.43
2019-04-04T23:08:34.581Z,46.10
2019-04-04T23:11:38.492Z,56.37
2019-04-04T23:14:48.398Z,47.13
2019-04-04T23:17:47.895Z,50.60
2019-04-04T23:20:51.736Z,43.60
2019-04-04T23:23:55.554Z,47.10
2019-04-04T23:26:59.380Z,48.00
2019-04-04T23:30:03.284Z,48.67
2019-04-04T23:33:07.171Z,44.90
2019-04-04T23:36:11.028Z,45.77
2019-04-04T23:39:15.039Z,51.87
2019-04-04T23:42:18.883Z,46.00
2019-04-04T23:45:22.734Z,47.87
2019-04-04T23:48:26.555Z,49.43
2019-04-04T23:51:30.550Z,50.90
2019-04-04T23:54:34.440Z,46.23
2019-04-04T23:57:38.343Z,48.70
